Time;durP1;ratioP1;P1;durP2;ratioP2;P2;SDS_P1;SDS_P2;PMS_P1;PMS_P2;Temp;Humidity;BMP_temperature;BMP_pressure;BME280_temperature;BME280_humidity;BME280_pressure;Samples;Min_cycle;Max_cycle;Signal;HPM_P1;HPM_P2
2022/11/21 08:58:48;;;;;;;114.45;48.40;;;;;;;;;;5085008;27;20817;-44
2022/11/21 09:01:15;;;;;;;119.78;50.70;;;;;;;;;;5084776;28;20052;-46
2022/11/21 09:03:41;;;;;;;122.93;47.08;;;;;;;;;;5080554;28;20044;-45
2022/11/21 09:06:08;;;;;;;109.15;47.92;;;;;;;;;;5083463;28;20040;-45
2022/11/21 09:08:34;;;;;;;128.57;46.70;;;;;;;;;;5084339;28;20059;-45
2022/11/21 09:11:07;;;;;;;105.68;43.20;;;;;;;;;;5085655;28;20044;-47
2022/11/21 09:13:34;;;;;;;116.50;43.45;;;;;;;;;;5083511;28;20490;-46
2022/11/21 09:18:46;;;;;;;116.72;46.40;;;;;;;;;;5081231;28;20604;-45
2022/11/21 09:21:14;;;;;;;104.53;43.47;;;;;;;;;;5085046;28;20101;-44
2022/11/21 09:23:41;;;;;;;106.13;44.30;;;;;;;;;;5085229;28;20036;-47
2022/11/21 09:26:07;;;;;;;108.72;43.97;;;;;;;;;;5085438;28;20151;-44
2022/11/21 09:28:34;;;;;;;96.10;39.42;;;;;;;;;;5083621;28;20568;-46
2022/11/21 09:31:02;;;;;;;91.32;38.45;;;;;;;;;;5085184;28;20036;-47
2022/11/21 09:33:29;;;;;;;93.18;37.53;;;;;;;;;;5084515;28;20040;-45
2022/11/21 09:35:58;;;;;;;105.13;41.20;;;;;;;;;;5084074;28;20555;-45
2022/11/21 09:38:25;;;;;;;98.43;41.60;;;;;;;;;;5085020;28;20115;-45
2022/11/21 09:40:57;;;;;;;105.78;41.30;;;;;;;;;;5085065;28;20049;-44
2022/11/21 09:43:34;;;;;;;91.68;39.30;;;;;;;;;;5084370;28;20036;-46
2022/11/21 09:46:17;;;;;;;94.68;38.45;;;;;;;;;;5081039;28;20398;-46
2022/11/21 09:48:57;;;;;;;92.07;41.03;;;;;;;;;;5081038;28;20044;-46
2022/11/21 09:51:25;;;;;;;96.15;40.17;;;;;;;;;;5081783;28;20050;-45
2022/11/21 09:54:04;;;;;;;90.32;36.47;;;;;;;;;;5082239;28;20448;-45
2022/11/21 09:56:32;;;;;;;101.93;36.85;;;;;;;;;;5084024;28;20127;-45
2022/11/21 09:59:07;;;;;;;101.38;38.75;;;;;;;;;;5073525;28;20042;-43
2022/11/21 10:01:35;;;;;;;92.18;36.67;;;;;;;;;;5067362;28;20044;-44
2022/11/21 10:04:02;;;;;;;95.35;38.75;;;;;;;;;;5069902;28;20071;-45
2022/11/21 10:06:46;;;;;;;87.03;36.95;;;;;;;;;;5068862;28;20032;-46
2022/11/21 10:09:26;;;;;;;87.43;36.15;;;;;;;;;;5070034;28;20041;-46
2022/11/21 10:14:43;;;;;;;84.40;35.65;;;;;;;;;;5070108;28;20082;-45
2022/11/21 10:17:16;;;;;;;79.53;35.33;;;;;;;;;;5070525;28;20487;-45
2022/11/21 10:19:42;;;;;;;85.05;33.10;;;;;;;;;;5070076;28;20040;-45
2022/11/21 10:22:38;;;;;;;85.40;34.00;;;;;;;;;;5069516;28;20040;-43
2022/11/21 10:25:12;;;;;;;93.47;35.30;;;;;;;;;;5030678;28;20067;-56
2022/11/21 10:27:42;;;;;;;71.32;31.13;;;;;;;;;;5039301;28;20053;-43
2022/11/21 10:30:18;;;;;;;77.72;31.98;;;;;;;;;;5045763;28;20076;-47
2022/11/21 10:32:46;;;;;;;83.18;31.38;;;;;;;;;;5044407;28;20044;-43
2022/11/21 10:35:15;;;;;;;73.28;29.92;;;;;;;;;;5040126;28;20053;-44
2022/11/21 10:37:47;;;;;;;85.68;32.00;;;;;;;;;;5021715;28;20045;-44
2022/11/21 10:40:23;;;;;;;78.22;31.45;;;;;;;;;;5043790;28;20045;-44
2022/11/21 10:42:52;;;;;;;88.13;31.67;;;;;;;;;;5038711;28;20056;-48
2022/11/21 10:45:19;;;;;;;80.72;29.50;;;;;;;;;;5036997;28;20045;-48
2022/11/21 10:47:46;;;;;;;88.97;30.80;;;;;;;;;;5025869;28;20041;-49
2022/11/21 10:50:19;;;;;;;92.43;32.00;;;;;;;;;;5037902;28;20045;-49
2022/11/21 10:52:46;;;;;;;74.05;30.05;;;;;;;;;;5040142;28;20073;-48
2022/11/21 10:55:14;;;;;;;89.30;29.48;;;;;;;;;;5038715;28;20057;-49
2022/11/21 10:57:47;;;;;;;72.00;29.10;;;;;;;;;;5041703;28;20060;-50
2022/11/21 11:00:14;;;;;;;73.57;27.48;;;;;;;;;;5042128;28;20057;-52
2022/11/21 11:03:04;;;;;;;75.50;30.23;;;;;;;;;;5063814;28;20052;-48
2022/11/21 11:05:31;;;;;;;85.40;29.10;;;;;;;;;;5066615;28;20470;-48
2022/11/21 11:08:01;;;;;;;69.13;27.98;;;;;;;;;;5069464;28;20097;-51
2022/11/21 11:10:28;;;;;;;87.72;30.33;;;;;;;;;;5065415;28;20037;-49
2022/11/21 11:16:02;;;;;;;72.97;27.35;;;;;;;;;;5065663;28;20044;-51
2022/11/21 11:18:29;;;;;;;69.15;26.35;;;;;;;;;;5064581;28;20482;-51
2022/11/21 11:21:16;;;;;;;94.85;28.95;;;;;;;;;;5066063;28;20037;-51
2022/11/21 11:23:42;;;;;;;74.13;26.60;;;;;;;;;;5065776;28;20381;-50
2022/11/21 11:26:26;;;;;;;72.70;27.35;;;;;;;;;;5068569;28;20040;-50
2022/11/21 11:28:54;;;;;;;;;;;;;;;;;;5067604;28;20135;-49
2022/11/21 11:31:21;;;;;;;73.60;25.67;;;;;;;;;;5062256;28;19973;-48
2022/11/21 11:33:48;;;;;;;69.35;26.63;;;;;;;;;;5063333;28;20043;-48
2022/11/21 11:36:14;;;;;;;62.90;24.23;;;;;;;;;;5063883;28;20052;-49
2022/11/21 11:38:52;;;;;;;73.30;26.65;;;;;;;;;;5067623;28;20046;-48
2022/11/21 11:41:22;;;;;;;77.43;27.15;;;;;;;;;;5067024;28;20040;-51
2022/11/21 11:52:52;;;;;;;73.55;30.23;;;;;;;;;;5063649;28;20068;-52
2022/11/21 11:55:34;;;;;;;82.93;29.10;;;;;;;;;;5064600;28;20071;-50
2022/11/21 11:58:01;;;;;;;85.30;30.38;;;;;;;;;;5061428;28;20056;-48
2022/11/21 12:00:34;;;;;;;69.60;26.70;;;;;;;;;;5061578;28;20075;-49
2022/11/21 12:03:01;;;;;;;78.00;29.55;;;;;;;;;;5063276;28;20406;-51
2022/11/21 12:05:29;;;;;;;87.38;31.73;;;;;;;;;;5060647;28;20048;-50
2022/11/21 12:08:03;;;;;;;80.35;30.00;;;;;;;;;;5011635;28;20058;-50
2022/11/21 12:13:51;;;;;;;77.68;29.15;;;;;;;;;;5018251;28;20507;-50
2022/11/21 12:16:18;;;;;;;71.93;28.05;;;;;;;;;;5024828;28;20131;-52
2022/11/21 12:18:52;;;;;;;81.90;30.20;;;;;;;;;;5021103;28;20045;-50
2022/11/21 12:21:19;;;;;;;71.05;29.70;;;;;;;;;;5000507;28;20119;-51
2022/11/21 12:23:56;;;;;;;83.25;30.27;;;;;;;;;;5020888;28;20132;-49
2022/11/21 12:26:25;;;;;;;71.32;27.60;;;;;;;;;;5017478;28;20092;-53
2022/11/21 12:28:52;;;;;;;92.38;31.70;;;;;;;;;;5022032;28;20050;-52
2022/11/21 12:31:37;;;;;;;80.13;28.60;;;;;;;;;;5023783;28;20045;-52
2022/11/21 12:34:22;;;;;;;78.03;28.63;;;;;;;;;;5020683;28;20038;-48
2022/11/21 12:36:52;;;;;;;81.15;29.02;;;;;;;;;;5022501;28;20045;-50
2022/11/21 12:39:28;;;;;;;74.93;29.88;;;;;;;;;;5022781;28;20041;-52
2022/11/21 12:44:49;;;;;;;;;;;;;;;;;;5019592;28;20091;-49
2022/11/21 12:54:29;;;;;;;86.35;30.27;;;;;;;;;;5020415;28;19925;-49
2022/11/21 12:56:05;;;;;;;91.75;31.58;;;;;;;;;;5021861;28;20053;-49
2022/11/21 12:58:45;;;;;;;100.53;33.42;;;;;;;;;;5019442;28;20555;-50
2022/11/21 13:01:18;;;;;;;75.18;29.27;;;;;;;;;;5023612;28;20038;-52
2022/11/21 13:03:47;;;;;;;80.28;31.13;;;;;;;;;;5022534;28;20061;-52
2022/11/21 13:06:16;;;;;;;69.22;29.35;;;;;;;;;;5020890;28;20037;-49
2022/11/21 13:08:44;;;;;;;76.05;31.20;;;;;;;;;;5019942;28;20454;-52
2022/11/21 13:14:11;;;;;;;88.50;31.42;;;;;;;;;;5021478;28;20144;-50
2022/11/21 13:16:43;;;;;;;83.57;34.63;;;;;;;;;;5026256;28;20037;-51
2022/11/21 13:19:20;;;;;;;79.30;31.23;;;;;;;;;;5023673;28;20087;-50
2022/11/21 13:21:47;;;;;;;96.75;32.28;;;;;;;;;;5022325;28;20289;-49
2022/11/21 13:24:40;;;;;;;87.05;32.72;;;;;;;;;;5018994;28;20091;-49
2022/11/21 13:27:07;;;;;;;75.18;30.23;;;;;;;;;;4995983;28;20050;-51
2022/11/21 13:29:33;;;;;;;89.35;33.10;;;;;;;;;;5013793;28;20054;-51
2022/11/21 13:32:20;;;;;;;79.55;32.20;;;;;;;;;;5001444;28;20059;-52
2022/11/21 13:34:46;;;;;;;79.90;30.92;;;;;;;;;;5004696;28;20054;-51
2022/11/21 13:37:33;;;;;;;75.30;32.55;;;;;;;;;;5009160;28;20041;-50
2022/11/21 13:40:18;;;;;;;96.38;34.85;;;;;;;;;;5008725;28;20547;-51
2022/11/21 13:43:02;;;;;;;81.20;33.33;;;;;;;;;;5007049;28;20409;-52
2022/11/21 13:45:51;;;;;;;110.65;39.47;;;;;;;;;;5005215;28;20038;-51
2022/11/21 13:48:18;;;;;;;98.63;38.30;;;;;;;;;;5005030;28;20578;-50
2022/11/21 13:50:50;;;;;;;80.65;35.00;;;;;;;;;;5002743;28;20050;-50
2022/11/21 13:53:35;;;;;;;88.32;35.70;;;;;;;;;;5002426;28;20097;-54
2022/11/21 13:56:05;;;;;;;95.47;37.47;;;;;;;;;;5003563;28;20108;-51
2022/11/21 13:58:37;;;;;;;102.97;37.33;;;;;;;;;;5002527;28;20046;-54
2022/11/21 14:01:12;;;;;;;117.20;50.95;;;;;;;;;;5005872;28;20088;-51
2022/11/21 14:03:39;;;;;;;89.90;38.80;;;;;;;;;;5011763;28;20057;-53
2022/11/21 14:06:11;;;;;;;104.47;38.65;;;;;;;;;;5026866;28;20041;-51
2022/11/21 14:08:39;;;;;;;103.85;38.15;;;;;;;;;;5023293;28;20049;-54
2022/11/21 14:11:19;;;;;;;92.30;39.38;;;;;;;;;;5029627;28;20542;-53
2022/11/21 14:13:46;;;;;;;98.40;38.30;;;;;;;;;;5028837;28;20455;-52
2022/11/21 14:16:13;;;;;;;97.15;40.35;;;;;;;;;;5029195;28;20033;-51
2022/11/21 14:18:41;;;;;;;110.03;41.00;;;;;;;;;;5025099;28;20041;-54
2022/11/21 14:21:16;;;;;;;95.10;40.00;;;;;;;;;;5023565;28;20029;-51
2022/11/21 14:23:44;;;;;;;114.32;46.10;;;;;;;;;;5022790;28;20092;-51
2022/11/21 14:26:18;;;;;;;108.57;46.13;;;;;;;;;;5027303;28;20080;-51
2022/11/21 14:28:45;;;;;;;103.53;42.67;;;;;;;;;;5025990;28;20052;-54
2022/11/21 14:31:12;;;;;;;101.82;41.33;;;;;;;;;;5023016;28;20041;-51
2022/11/21 14:33:40;;;;;;;96.30;41.03;;;;;;;;;;5025468;28;20049;-52
2022/11/21 14:36:15;;;;;;;111.30;43.42;;;;;;;;;;5025245;28;20100;-51
2022/11/21 14:38:44;;;;;;;134.68;48.45;;;;;;;;;;5022107;28;20152;-51
2022/11/21 14:41:13;;;;;;;114.97;50.47;;;;;;;;;;5022772;28;20450;-53
2022/11/21 14:43:40;;;;;;;126.32;51.67;;;;;;;;;;5025273;28;20049;-50
2022/11/21 14:46:13;;;;;;;116.53;49.65;;;;;;;;;;5028474;28;20083;-54
2022/11/21 14:48:41;;;;;;;120.68;49.58;;;;;;;;;;5024650;28;20572;-51
2022/11/21 14:51:08;;;;;;;130.13;49.30;;;;;;;;;;5022644;28;20041;-55
2022/11/21 14:53:38;;;;;;;132.45;50.00;;;;;;;;;;5023247;28;20042;-51
2022/11/21 14:56:05;;;;;;;115.90;50.00;;;;;;;;;;5026473;28;20049;-53
2022/11/21 14:58:31;;;;;;;110.88;45.60;;;;;;;;;;5024071;28;20057;-52
2022/11/21 15:01:06;;;;;;;113.28;46.17;;;;;;;;;;5022357;28;20037;-52
2022/11/21 15:03:33;;;;;;;125.97;47.45;;;;;;;;;;5021899;28;20045;-54
2022/11/21 15:06:01;;;;;;;120.00;44.80;;;;;;;;;;5020964;28;20037;-51
2022/11/21 15:08:33;;;;;;;126.03;49.22;;;;;;;;;;5019077;28;20131;-54
2022/11/21 15:11:21;;;;;;;121.72;47.67;;;;;;;;;;5025908;28;20037;-51
2022/11/21 15:13:49;;;;;;;109.85;47.28;;;;;;;;;;5024811;28;20046;-55
2022/11/21 15:16:36;;;;;;;125.53;46.65;;;;;;;;;;5020517;28;20037;-51
2022/11/21 15:19:07;;;;;;;121.38;45.47;;;;;;;;;;5025193;28;20044;-54
2022/11/21 15:21:34;;;;;;;120.38;45.22;;;;;;;;;;5023791;28;20084;-52
2022/11/21 15:24:19;;;;;;;108.47;44.22;;;;;;;;;;5022244;28;20796;-51
2022/11/21 15:26:46;;;;;;;114.20;48.05;;;;;;;;;;5019698;28;20415;-55
2022/11/21 15:29:20;;;;;;;113.35;45.75;;;;;;;;;;5023738;28;20041;-54
2022/11/21 15:31:46;;;;;;;;;;;;;;;;;;5024919;28;20050;-51
2022/11/21 15:34:25;;;;;;;119.82;44.22;;;;;;;;;;5026442;28;19925;-52
2022/11/21 15:37:16;;;;;;;107.47;44.97;;;;;;;;;;5025242;28;20128;-55
2022/11/21 15:39:48;;;;;;;109.63;44.95;;;;;;;;;;5022508;28;20671;-50
2022/11/21 15:42:30;;;;;;;124.72;47.47;;;;;;;;;;5024141;28;20120;-50
2022/11/21 15:45:01;;;;;;;110.03;43.53;;;;;;;;;;5020550;28;20509;-52
2022/11/21 15:47:27;;;;;;;106.50;41.78;;;;;;;;;;5021575;28;20037;-53
2022/11/21 15:49:54;;;;;;;105.25;41.80;;;;;;;;;;5024245;28;20109;-53
2022/11/21 15:52:20;;;;;;;114.40;42.83;;;;;;;;;;5025324;28;20038;-51
2022/11/21 15:54:47;;;;;;;121.88;45.22;;;;;;;;;;5023501;28;20045;-53
2022/11/21 15:57:14;;;;;;;114.13;44.58;;;;;;;;;;5023200;28;20048;-53
2022/11/21 15:59:43;;;;;;;115.80;48.28;;;;;;;;;;5022804;28;20049;-53
2022/11/21 16:02:13;;;;;;;103.18;42.88;;;;;;;;;;5023957;28;20396;-51
2022/11/21 16:04:40;;;;;;;128.20;46.80;;;;;;;;;;5022414;28;20128;-54
2022/11/21 16:07:06;;;;;;;119.13;46.85;;;;;;;;;;5025652;28;20049;-51
2022/11/21 16:09:34;;;;;;;109.68;41.00;;;;;;;;;;5021056;28;20041;-53
2022/11/21 16:12:01;;;;;;;117.57;43.40;;;;;;;;;;5019497;28;20061;-52
2022/11/21 16:14:27;;;;;;;124.90;44.25;;;;;;;;;;5018562;28;20048;-54
2022/11/21 16:16:54;;;;;;;132.15;46.47;;;;;;;;;;5022565;28;20464;-51
2022/11/21 16:19:20;;;;;;;119.57;44.40;;;;;;;;;;5025341;28;20033;-52
2022/11/21 16:21:47;;;;;;;127.63;47.00;;;;;;;;;;5022257;28;20051;-54
2022/11/21 16:24:13;;;;;;;118.65;45.13;;;;;;;;;;5017394;28;20045;-53
2022/11/21 16:26:40;;;;;;;133.68;46.58;;;;;;;;;;5018581;28;20065;-55
2022/11/21 16:29:09;;;;;;;129.82;45.83;;;;;;;;;;5024897;28;20048;-55
2022/11/21 16:31:35;;;;;;;121.05;43.25;;;;;;;;;;5025161;28;20045;-53
2022/11/21 16:34:02;;;;;;;121.93;45.25;;;;;;;;;;5020785;28;20030;-54
2022/11/21 16:36:29;;;;;;;119.18;44.15;;;;;;;;;;5018216;28;20474;-51
2022/11/21 16:38:56;;;;;;;127.93;47.30;;;;;;;;;;5020368;28;20455;-52
2022/11/21 16:41:29;;;;;;;129.70;44.23;;;;;;;;;;5025031;28;20057;-54
2022/11/21 16:43:55;;;;;;;135.48;47.67;;;;;;;;;;5025321;28;20044;-51
2022/11/21 16:46:22;;;;;;;120.07;45.05;;;;;;;;;;5023836;28;20132;-52
2022/11/21 16:48:56;;;;;;;112.82;44.00;;;;;;;;;;5018322;28;20041;-54
2022/11/21 16:51:22;;;;;;;102.95;42.03;;;;;;;;;;5015425;28;20034;-55
2022/11/21 16:53:49;;;;;;;119.88;44.00;;;;;;;;;;5020242;28;20499;-54
2022/11/21 16:56:15;;;;;;;115.20;40.95;;;;;;;;;;5022569;28;20038;-55
2022/11/21 16:58:42;;;;;;;94.65;38.83;;;;;;;;;;5023100;28;20050;-53
2022/11/21 17:01:09;;;;;;;98.22;39.72;;;;;;;;;;5025177;28;20036;-54
2022/11/21 17:03:39;;;;;;;107.32;41.05;;;;;;;;;;5016644;28;20049;-53
2022/11/21 17:06:06;;;;;;;106.78;40.78;;;;;;;;;;5019229;28;20040;-54
2022/11/21 17:08:34;;;;;;;117.38;42.28;;;;;;;;;;5021390;28;20069;-53
2022/11/21 17:11:10;;;;;;;107.80;41.22;;;;;;;;;;5026504;28;20049;-46
2022/11/21 17:13:37;;;;;;;112.78;40.95;;;;;;;;;;5026466;28;20753;-55
2022/11/21 17:16:04;;;;;;;102.30;39.42;;;;;;;;;;5026761;28;20037;-56
2022/11/21 17:18:31;;;;;;;114.47;40.00;;;;;;;;;;5022949;28;20144;-54
2022/11/21 17:20:57;;;;;;;112.05;41.28;;;;;;;;;;5014297;28;20030;-54
2022/11/21 17:23:24;;;;;;;100.35;38.72;;;;;;;;;;5025343;28;20049;-56
2022/11/21 17:25:50;;;;;;;112.60;43.30;;;;;;;;;;5026377;28;20424;-54
2022/11/21 17:28:17;;;;;;;104.88;41.03;;;;;;;;;;5024016;28;20052;-51
2022/11/21 17:30:43;;;;;;;102.68;41.78;;;;;;;;;;5026336;28;20057;-53
2022/11/21 17:33:10;;;;;;;121.05;44.83;;;;;;;;;;5024842;28;20044;-53
2022/11/21 17:35:36;;;;;;;109.55;42.75;;;;;;;;;;5026276;28;20046;-50
2022/11/21 17:38:03;;;;;;;108.93;43.38;;;;;;;;;;5027159;28;20046;-53
2022/11/21 17:40:29;;;;;;;132.90;47.38;;;;;;;;;;5026653;28;20744;-54
2022/11/21 17:42:56;;;;;;;106.88;40.92;;;;;;;;;;5024032;28;20037;-53
2022/11/21 17:45:22;;;;;;;106.80;40.08;;;;;;;;;;5022325;28;20139;-52
2022/11/21 17:47:49;;;;;;;118.45;43.47;;;;;;;;;;5024484;28;20056;-52
2022/11/21 17:50:15;;;;;;;123.57;43.85;;;;;;;;;;5021566;28;20041;-52
2022/11/21 17:52:42;;;;;;;107.25;41.15;;;;;;;;;;5053878;28;20038;-49
2022/11/21 17:55:08;;;;;;;107.03;43.53;;;;;;;;;;5029080;28;20042;-53
2022/11/21 17:57:35;;;;;;;106.72;41.83;;;;;;;;;;5022728;28;20120;-51
2022/11/21 18:00:02;;;;;;;104.43;40.83;;;;;;;;;;5022248;28;20041;-53
2022/11/21 18:02:29;;;;;;;119.20;43.67;;;;;;;;;;5023924;28;20043;-54
2022/11/21 18:04:56;;;;;;;122.07;43.53;;;;;;;;;;5024577;28;20120;-49
2022/11/21 18:07:23;;;;;;;93.45;38.85;;;;;;;;;;5027703;28;20037;-53
2022/11/21 18:09:49;;;;;;;98.57;40.95;;;;;;;;;;5026059;28;20072;-52
2022/11/21 18:12:16;;;;;;;102.00;42.40;;;;;;;;;;5025883;28;20050;-50
2022/11/21 18:14:42;;;;;;;108.95;41.15;;;;;;;;;;5023315;28;20048;-51
2022/11/21 18:17:09;;;;;;;102.00;41.10;;;;;;;;;;5027279;28;20045;-51
2022/11/21 18:19:35;;;;;;;105.30;42.20;;;;;;;;;;5026002;28;20042;-52
2022/11/21 18:22:02;;;;;;;109.55;42.13;;;;;;;;;;5027050;28;20041;-51
2022/11/21 18:24:28;;;;;;;106.35;41.08;;;;;;;;;;5025814;28;20682;-52
2022/11/21 18:26:55;;;;;;;103.32;39.17;;;;;;;;;;5024291;28;20038;-54
2022/11/21 18:29:23;;;;;;;110.25;42.90;;;;;;;;;;5022674;28;20503;-55
2022/11/21 18:32:08;;;;;;;115.05;43.03;;;;;;;;;;5024966;28;20419;-54
2022/11/21 18:34:34;;;;;;;101.88;43.08;;;;;;;;;;5025575;28;20045;-55
2022/11/21 18:37:01;;;;;;;102.90;41.67;;;;;;;;;;5028152;28;20212;-54
2022/11/21 18:39:27;;;;;;;111.55;44.17;;;;;;;;;;5023079;28;20041;-54
2022/11/21 18:41:54;;;;;;;109.03;42.67;;;;;;;;;;5020438;28;20038;-56
2022/11/21 18:44:21;;;;;;;97.25;41.33;;;;;;;;;;5026563;28;20464;-52
2022/11/21 18:46:48;;;;;;;102.90;41.38;;;;;;;;;;5025322;28;20045;-52
2022/11/21 18:49:14;;;;;;;108.60;42.40;;;;;;;;;;5025327;28;20042;-55
2022/11/21 18:51:41;;;;;;;109.72;42.80;;;;;;;;;;5023289;28;20037;-53
2022/11/21 18:54:09;;;;;;;110.18;44.15;;;;;;;;;;5021393;28;20511;-54
2022/11/21 18:56:36;;;;;;;106.20;43.50;;;;;;;;;;5023886;28;20050;-50
2022/11/21 18:59:05;;;;;;;96.63;42.22;;;;;;;;;;5029169;28;20077;-49
2022/11/21 19:01:32;;;;;;;109.82;44.60;;;;;;;;;;5024861;28;20748;-48
2022/11/21 19:16:50;;;;;;;113.47;49.40;;;;;;;;;;5100239;27;20393;-48
2022/11/21 19:19:17;;;;;;;109.13;46.63;;;;;;;;;;5096772;28;20050;-48
2022/11/21 19:22:03;;;;;;;111.50;45.53;;;;;;;;;;5096395;28;20125;-46
2022/11/21 19:24:29;;;;;;;101.70;44.50;;;;;;;;;;5083403;28;20104;-49
2022/11/21 19:26:56;;;;;;;106.10;45.17;;;;;;;;;;5093693;28;20044;-48
2022/11/21 19:29:23;;;;;;;114.10;45.90;;;;;;;;;;5090938;28;20064;-48
2022/11/21 19:31:49;;;;;;;101.72;43.42;;;;;;;;;;5096047;28;20506;-48
2022/11/21 19:34:16;;;;;;;109.00;43.35;;;;;;;;;;5098279;28;20043;-49
2022/11/21 19:36:43;;;;;;;112.07;45.35;;;;;;;;;;5095615;28;20043;-47
2022/11/21 19:39:10;;;;;;;105.82;43.55;;;;;;;;;;5093108;28;20042;-48
2022/11/21 19:41:37;;;;;;;103.47;43.42;;;;;;;;;;5098661;28;20490;-47
2022/11/21 19:44:03;;;;;;;109.05;43.17;;;;;;;;;;5098076;28;20043;-50
2022/11/21 19:46:35;;;;;;;102.85;43.13;;;;;;;;;;5093625;28;20040;-50
2022/11/21 19:49:02;;;;;;;111.80;45.28;;;;;;;;;;5096526;28;20031;-50
2022/11/21 19:51:33;;;;;;;111.45;46.20;;;;;;;;;;5096629;28;20073;-50
2022/11/21 19:54:04;;;;;;;110.97;44.90;;;;;;;;;;5088567;28;20044;-49
2022/11/21 19:56:30;;;;;;;101.03;43.85;;;;;;;;;;5099192;28;20040;-48
2022/11/21 19:58:57;;;;;;;99.00;42.88;;;;;;;;;;5096920;28;20040;-49
2022/11/21 20:01:25;;;;;;;113.05;45.65;;;;;;;;;;5094369;28;20459;-51
2022/11/21 20:03:52;;;;;;;106.40;44.00;;;;;;;;;;5096244;28;20047;-50
2022/11/21 20:06:19;;;;;;;101.40;42.80;;;;;;;;;;5093540;28;20517;-48
2022/11/21 20:08:50;;;;;;;114.63;45.95;;;;;;;;;;5090304;28;20040;-50
2022/11/21 20:11:16;;;;;;;105.15;45.05;;;;;;;;;;5099426;28;20047;-49
2022/11/21 20:13:44;;;;;;;108.53;46.20;;;;;;;;;;5095760;28;20123;-49
2022/11/21 20:16:21;;;;;;;110.10;46.88;;;;;;;;;;5092098;28;20073;-50
2022/11/21 20:18:48;;;;;;;106.75;45.72;;;;;;;;;;5081535;28;20037;-47
2022/11/21 20:21:15;;;;;;;112.78;44.20;;;;;;;;;;5080833;28;20041;-49
2022/11/21 20:23:42;;;;;;;120.32;48.90;;;;;;;;;;5078363;28;20059;-47
2022/11/21 20:26:08;;;;;;;146.00;51.15;;;;;;;;;;5079662;28;20044;-45
2022/11/21 20:28:35;;;;;;;109.55;46.53;;;;;;;;;;5077531;28;20096;-45
2022/11/21 20:31:03;;;;;;;116.43;48.03;;;;;;;;;;5078859;28;20032;-43
2022/11/21 20:33:32;;;;;;;105.13;44.38;;;;;;;;;;5092586;28;20036;-41
2022/11/21 20:36:03;;;;;;;116.00;47.33;;;;;;;;;;5074882;28;20059;-44
2022/11/21 20:38:29;;;;;;;115.75;47.63;;;;;;;;;;5082005;28;20059;-41
2022/11/21 20:40:56;;;;;;;117.82;46.15;;;;;;;;;;5082685;28;20526;-42
2022/11/21 20:43:22;;;;;;;110.55;47.05;;;;;;;;;;5083748;28;20059;-49
2022/11/21 20:46:09;;;;;;;108.47;44.30;;;;;;;;;;5082864;28;20040;-50
2022/11/21 20:48:44;;;;;;;114.22;46.88;;;;;;;;;;5083749;28;20055;-48
2022/11/21 20:51:10;;;;;;;114.25;46.10;;;;;;;;;;5076172;28;20055;-49
2022/11/21 20:53:57;;;;;;;116.32;46.17;;;;;;;;;;5081599;28;20048;-46
2022/11/21 20:56:31;;;;;;;120.72;46.42;;;;;;;;;;5077220;28;20040;-43
2022/11/21 20:58:57;;;;;;;118.80;45.88;;;;;;;;;;5082267;28;20506;-43
2022/11/21 21:01:25;;;;;;;112.60;45.58;;;;;;;;;;5081258;28;20052;-43
2022/11/21 21:03:51;;;;;;;127.63;48.53;;;;;;;;;;5080384;28;20028;-43
2022/11/21 21:06:19;;;;;;;115.13;45.80;;;;;;;;;;5081692;28;20044;-43
2022/11/21 21:08:46;;;;;;;123.30;49.80;;;;;;;;;;5080749;28;20041;-42
2022/11/21 21:11:14;;;;;;;112.78;45.08;;;;;;;;;;5082802;28;20051;-43
2022/11/21 21:14:01;;;;;;;119.70;47.58;;;;;;;;;;5082343;28;20048;-43
2022/11/21 21:16:33;;;;;;;107.90;44.42;;;;;;;;;;5082832;28;20466;-42
2022/11/21 21:18:59;;;;;;;115.25;44.47;;;;;;;;;;5081900;28;20048;-43
2022/11/21 21:21:27;;;;;;;118.53;46.33;;;;;;;;;;5080366;28;20047;-43
2022/11/21 21:23:55;;;;;;;112.63;45.63;;;;;;;;;;5079667;28;20150;-43
2022/11/21 21:26:23;;;;;;;115.28;47.58;;;;;;;;;;5085496;28;20055;-43
2022/11/21 21:28:49;;;;;;;113.35;44.72;;;;;;;;;;5082903;28;20048;-43
2022/11/21 21:31:17;;;;;;;114.88;46.70;;;;;;;;;;5082699;28;20043;-43
2022/11/21 21:33:44;;;;;;;107.85;43.78;;;;;;;;;;5078903;28;20036;-43
2022/11/21 21:36:18;;;;;;;119.38;45.63;;;;;;;;;;5077383;28;20398;-42
2022/11/21 21:38:48;;;;;;;116.35;45.42;;;;;;;;;;5081128;28;20074;-43
2022/11/21 21:41:14;;;;;;;121.30;44.13;;;;;;;;;;5084316;28;20043;-43
2022/11/21 21:43:41;;;;;;;109.80;43.00;;;;;;;;;;5085874;28;20064;-43
2022/11/21 21:46:08;;;;;;;97.03;40.55;;;;;;;;;;5082091;28;20044;-43
2022/11/21 21:48:35;;;;;;;96.68;40.85;;;;;;;;;;5080780;28;20036;-43
2022/11/21 21:51:05;;;;;;;107.78;41.72;;;;;;;;;;5080103;28;20127;-43
2022/11/21 21:53:34;;;;;;;95.95;41.60;;;;;;;;;;5082949;28;20044;-43
2022/11/21 21:56:01;;;;;;;121.80;44.95;;;;;;;;;;5081179;28;20052;-43
2022/11/21 21:58:27;;;;;;;103.88;43.47;;;;;;;;;;5080570;28;20105;-43
2022/11/21 22:01:00;;;;;;;109.38;44.72;;;;;;;;;;5080084;28;20089;-43
2022/11/21 22:03:27;;;;;;;109.38;44.55;;;;;;;;;;5077807;28;20044;-43
2022/11/21 22:05:53;;;;;;;121.05;49.00;;;;;;;;;;5080863;28;20505;-43
2022/11/21 22:08:20;;;;;;;116.90;47.08;;;;;;;;;;5084284;28;20097;-44
2022/11/21 22:10:46;;;;;;;113.70;45.13;;;;;;;;;;5078698;28;20044;-43
2022/11/21 22:13:13;;;;;;;107.97;43.88;;;;;;;;;;5080372;28;20032;-43
2022/11/21 22:15:39;;;;;;;102.55;43.25;;;;;;;;;;5076268;28;20426;-43
2022/11/21 22:18:06;;;;;;;121.20;46.42;;;;;;;;;;5077552;28;20045;-43
2022/11/21 22:20:32;;;;;;;105.15;43.65;;;;;;;;;;5080876;28;20041;-42
2022/11/21 22:22:58;;;;;;;112.10;43.78;;;;;;;;;;5081888;28;20564;-43
2022/11/21 22:25:26;;;;;;;110.35;41.97;;;;;;;;;;5079940;28;20068;-43
2022/11/21 22:27:52;;;;;;;116.43;44.22;;;;;;;;;;5078417;28;20075;-43
2022/11/21 22:30:19;;;;;;;111.90;43.53;;;;;;;;;;5079365;28;20041;-43
2022/11/21 22:32:45;;;;;;;113.03;44.65;;;;;;;;;;5078203;28;20113;-43
2022/11/21 22:35:12;;;;;;;114.82;43.50;;;;;;;;;;5082346;28;20044;-43
2022/11/21 22:37:38;;;;;;;120.40;46.15;;;;;;;;;;5081575;28;20044;-43
2022/11/21 22:40:05;;;;;;;117.13;44.17;;;;;;;;;;5080438;28;21160;-43
2022/11/21 22:42:31;;;;;;;112.43;44.88;;;;;;;;;;5076438;28;20032;-43
2022/11/21 22:44:58;;;;;;;116.90;46.05;;;;;;;;;;5078780;28;20510;-44
2022/11/21 22:47:24;;;;;;;120.97;46.67;;;;;;;;;;5079630;28;20103;-43
2022/11/21 22:49:51;;;;;;;114.47;42.70;;;;;;;;;;5079404;28;20042;-43
2022/11/21 22:52:17;;;;;;;118.82;45.53;;;;;;;;;;5083758;28;20509;-43
2022/11/21 22:54:44;;;;;;;111.07;44.42;;;;;;;;;;5077628;28;20082;-43
2022/11/21 22:57:10;;;;;;;125.60;46.65;;;;;;;;;;5068662;28;20425;-43
2022/11/21 22:59:37;;;;;;;116.43;44.25;;;;;;;;;;5083022;28;20051;-43
2022/11/21 23:02:03;;;;;;;121.90;45.97;;;;;;;;;;5081894;28;20043;-43
2022/11/21 23:04:30;;;;;;;126.20;50.58;;;;;;;;;;5078797;28;20111;-43
2022/11/21 23:06:57;;;;;;;113.25;44.90;;;;;;;;;;5079054;28;20040;-43
2022/11/21 23:09:23;;;;;;;116.47;46.13;;;;;;;;;;5070735;28;20498;-43
2022/11/21 23:11:50;;;;;;;139.93;47.05;;;;;;;;;;5081597;28;20462;-43
2022/11/21 23:14:16;;;;;;;112.43;42.97;;;;;;;;;;5081010;28;20101;-43
2022/11/21 23:16:43;;;;;;;108.72;43.03;;;;;;;;;;5079053;28;20052;-44
2022/11/21 23:19:09;;;;;;;126.78;46.60;;;;;;;;;;5080856;28;20093;-42
2022/11/21 23:21:36;;;;;;;118.65;45.33;;;;;;;;;;5071740;28;20071;-43
2022/11/21 23:24:02;;;;;;;112.43;43.00;;;;;;;;;;5075844;28;20041;-43
2022/11/21 23:26:29;;;;;;;114.85;44.75;;;;;;;;;;5080013;28;20588;-43
2022/11/21 23:28:55;;;;;;;118.43;44.15;;;;;;;;;;5079095;28;20072;-43
2022/11/21 23:31:22;;;;;;;116.53;45.00;;;;;;;;;;5079889;28;20043;-42
2022/11/21 23:33:48;;;;;;;118.00;44.58;;;;;;;;;;5077964;28;20040;-43
2022/11/21 23:36:15;;;;;;;126.07;46.58;;;;;;;;;;5078247;28;20037;-43
2022/11/21 23:38:41;;;;;;;123.43;44.53;;;;;;;;;;5081557;28;20040;-43
2022/11/21 23:41:08;;;;;;;109.63;44.40;;;;;;;;;;5081528;28;20055;-43
2022/11/21 23:43:34;;;;;;;115.47;44.20;;;;;;;;;;5080611;28;20036;-45
2022/11/21 23:46:01;;;;;;;121.50;45.28;;;;;;;;;;5075307;28;20040;-44
2022/11/21 23:48:28;;;;;;;112.75;43.35;;;;;;;;;;5077914;28;20048;-43
2022/11/21 23:50:54;;;;;;;137.07;48.63;;;;;;;;;;5079968;28;20109;-43
2022/11/21 23:53:21;;;;;;;119.05;45.97;;;;;;;;;;5088277;28;20486;-43
2022/11/21 23:55:47;;;;;;;115.45;44.55;;;;;;;;;;5081329;28;20055;-43
2022/11/21 23:58:14;;;;;;;119.50;44.47;;;;;;;;;;5079740;28;20547;-43
